Time;durP1;ratioP1;P1;durP2;ratioP2;P2;SDS_P1;SDS_P2;PMS_P1;PMS_P2;Temp;Humidity;BMP_temperature;BMP_pressure;BME280_temperature;BME280_humidity;BME280_pressure;Samples;Min_cycle;Max_cycle;Signal;HPM_P1;HPM_P2
2021/05/17 00:00:47;;;;;;;15.23;13.63;;;;;;;17.34;71.45;99150.50;4949107;28;20053;-75
2021/05/17 00:03:17;;;;;;;15.50;13.15;;;;;;;17.36;71.35;99148.56;4949490;28;20086;-75
2021/05/17 00:05:45;;;;;;;16.70;14.60;;;;;;;17.40;70.95;99141.19;4948634;28;20456;-75
2021/05/17 00:08:12;;;;;;;13.85;12.05;;;;;;;17.29;71.57;99124.59;4948140;28;20126;-70
2021/05/17 00:10:39;;;;;;;14.07;12.23;;;;;;;17.37;70.53;99136.25;4947791;28;20192;-70
2021/05/17 00:13:07;;;;;;;16.75;12.05;;;;;;;17.26;70.84;99109.13;4949320;28;20077;-69
2021/05/17 00:15:34;;;;;;;13.65;12.32;;;;;;;17.21;71.04;99121.06;4949065;28;20073;-68
2021/05/17 00:18:01;;;;;;;12.82;11.52;;;;;;;17.22;70.40;99110.38;4948962;28;20071;-70
2021/05/17 00:20:28;;;;;;;11.93;10.82;;;;;;;17.19;70.65;99107.19;4948372;28;20581;-69
2021/05/17 00:22:55;;;;;;;15.45;10.93;;;;;;;17.14;70.73;99110.28;4948720;28;20035;-69
2021/05/17 00:25:23;;;;;;;13.35;10.57;;;;;;;17.17;70.51;99109.16;4949837;28;20557;-69
2021/05/17 00:27:51;;;;;;;15.23;12.52;;;;;;;17.17;70.72;99123.16;4949531;28;20130;-69
2021/05/17 00:30:23;;;;;;;20.75;14.50;;;;;;;17.07;70.96;99113.66;4949178;28;20055;-70
2021/05/17 00:32:51;;;;;;;17.27;13.25;;;;;;;16.98;72.05;99110.06;4923050;29;20106;-70
2021/05/17 00:35:18;;;;;;;13.65;12.32;;;;;;;17.03;71.76;99102.56;4949100;28;20043;-70
2021/05/17 00:37:46;;;;;;;22.95;14.93;;;;;;;16.96;72.07;99101.50;4948235;28;20051;-70
2021/05/17 00:40:15;;;;;;;17.98;15.82;;;;;;;16.87;73.16;99103.19;4949157;28;20047;-70
2021/05/17 00:42:43;;;;;;;20.23;17.98;;;;;;;16.95;72.50;99095.41;4948223;28;20089;-70
2021/05/17 00:45:14;;;;;;;22.73;16.95;;;;;;;16.91;72.18;99093.19;4947859;28;20498;-70
2021/05/17 00:47:44;;;;;;;17.20;15.38;;;;;;;16.94;72.00;99087.66;4947632;28;20483;-70
2021/05/17 00:50:14;;;;;;;17.30;15.40;;;;;;;16.83;72.54;99098.34;4947496;28;20089;-69
2021/05/17 00:52:41;;;;;;;19.08;16.90;;;;;;;16.84;72.31;99097.41;4949008;28;20047;-68
2021/05/17 00:55:09;;;;;;;17.08;15.32;;;;;;;16.90;71.88;99102.09;4948295;28;20427;-69
2021/05/17 00:57:36;;;;;;;18.17;15.77;;;;;;;16.82;72.49;99115.13;4948799;28;20082;-69
2021/05/17 01:00:10;;;;;;;19.05;15.93;;;;;;;16.79;72.68;99120.69;4931839;28;20661;-70
2021/05/17 01:02:45;;;;;;;16.83;15.25;;;;;;;16.74;72.57;99121.94;4948532;28;20522;-71
2021/05/17 01:05:23;;;;;;;16.95;15.23;;;;;;;16.66;72.85;99128.84;4931764;28;20043;-72
2021/05/17 01:07:53;;;;;;;17.77;15.40;;;;;;;16.69;72.76;99133.84;4948529;28;20520;-71
2021/05/17 01:10:21;;;;;;;17.45;13.95;;;;;;;16.74;73.14;99140.34;4949329;28;20086;-72
2021/05/17 01:12:50;;;;;;;16.48;14.77;;;;;;;16.74;72.93;99156.16;4949756;28;20055;-72
2021/05/17 01:15:19;;;;;;;18.33;14.95;;;;;;;16.76;72.90;99159.44;4941746;28;20047;-71
2021/05/17 01:17:47;;;;;;;16.20;14.65;;;;;;;16.75;72.77;99163.06;4933127;29;20451;-69
2021/05/17 01:20:16;;;;;;;17.30;15.23;;;;;;;16.75;72.52;99156.97;4941551;28;20130;-70
2021/05/17 01:25:19;;;;;;;15.57;13.73;;;;;;;16.59;72.26;99168.06;4948282;28;20114;-70
2021/05/17 01:27:48;;;;;;;14.13;12.73;;;;;;;16.63;71.89;99156.28;4948489;28;20513;-72
2021/05/17 01:30:18;;;;;;;14.25;12.85;;;;;;;16.55;72.01;99161.41;4948181;28;20039;-72
2021/05/17 01:32:47;;;;;;;14.00;12.73;;;;;;;16.59;71.60;99157.53;4949663;28;20139;-73
2021/05/17 01:35:14;;;;;;;13.45;10.90;;;;;;;16.59;71.43;99162.78;4952002;28;20039;-72
2021/05/17 01:37:41;;;;;;;14.65;12.80;;;;;;;16.54;71.58;99151.84;4936048;29;20557;-72
2021/05/17 01:40:10;;;;;;;11.93;10.65;;;;;;;16.45;72.08;99150.88;4953043;28;20505;-72
2021/05/17 01:42:41;;;;;;;14.93;12.48;;;;;;;16.50;71.76;99150.47;4953031;28;20083;-72
2021/05/17 01:45:10;;;;;;;16.45;12.98;;;;;;;16.40;71.69;99157.53;4953223;28;20048;-72
2021/05/17 01:47:47;;;;;;;15.95;12.00;;;;;;;16.46;71.82;99151.75;4951739;28;21197;-72
2021/05/17 01:50:18;;;;;;;12.32;11.15;;;;;;;16.46;71.57;99141.22;4951865;28;20449;-72
2021/05/17 01:52:45;;;;;;;14.80;11.35;;;;;;;16.43;71.55;99149.38;4949755;28;20047;-69
2021/05/17 01:55:13;;;;;;;14.82;11.93;;;;;;;16.44;71.59;99137.88;4938347;28;20059;-68
2021/05/17 01:57:40;;;;;;;15.73;11.80;;;;;;;16.47;71.36;99137.63;4951721;28;20218;-69
2021/05/17 02:00:12;;;;;;;16.35;13.13;;;;;;;16.46;71.34;99152.56;4935283;28;20650;-68
2021/05/17 02:02:48;;;;;;;14.00;11.93;;;;;;;16.43;71.29;99154.66;4934714;29;20043;-69
2021/05/17 02:05:22;;;;;;;12.77;11.07;;;;;;;16.44;71.25;99158.94;4942431;29;20102;-69
2021/05/17 02:07:49;;;;;;;12.93;11.73;;;;;;;16.43;71.06;99163.38;4952120;28;20494;-69
2021/05/17 02:10:16;;;;;;;13.25;11.00;;;;;;;16.38;71.04;99165.59;4951337;28;20450;-69
2021/05/17 02:12:44;;;;;;;11.18;10.07;;;;;;;16.40;70.83;99178.59;4950993;28;20122;-69
2021/05/17 02:15:13;;;;;;;13.23;9.02;;;;;;;16.40;70.65;99194.38;4951180;28;20039;-69
2021/05/17 02:17:42;;;;;;;13.68;9.85;;;;;;;16.33;70.59;99193.28;4941423;28;20040;-70
2021/05/17 02:20:15;;;;;;;10.98;9.63;;;;;;;16.36;70.63;99193.84;4951482;28;20471;-70
2021/05/17 02:22:47;;;;;;;11.80;7.80;;;;;;;16.32;70.55;99196.88;4952346;28;20100;-70
2021/05/17 02:25:21;;;;;;;9.80;8.27;;;;;;;16.33;70.36;99199.34;4933946;28;20463;-70
2021/05/17 02:27:51;;;;;;;9.02;8.10;;;;;;;16.34;70.33;99206.28;4933779;28;20052;-71
2021/05/17 02:30:20;;;;;;;10.10;9.07;;;;;;;16.33;70.29;99211.69;4947630;28;20066;-70
2021/05/17 02:32:47;;;;;;;9.65;7.43;;;;;;;16.37;70.26;99211.28;4952251;28;20043;-71
2021/05/17 02:35:22;;;;;;;17.45;7.50;;;;;;;16.36;70.21;99220.13;4933870;28;20506;-72
2021/05/17 02:37:49;;;;;;;12.95;7.20;;;;;;;16.38;70.04;99222.63;4951337;28;20129;-73
2021/05/17 02:40:17;;;;;;;7.05;6.20;;;;;;;16.38;69.76;99238.41;4934160;28;20043;-72
2021/05/17 02:42:47;;;;;;;9.27;4.65;;;;;;;16.44;69.33;99237.84;4952012;28;20055;-72
2021/05/17 02:45:19;;;;;;;;;;;;;;;16.42;68.77;99250.31;4918513;28;20043;-72
2021/05/17 02:47:46;;;;;;;8.80;6.18;;;;;;;16.42;69.08;99245.06;4951785;28;20033;-69
2021/05/17 02:50:16;;;;;;;8.55;6.28;;;;;;;16.43;68.93;99246.72;4951405;28;20039;-70
2021/05/17 02:52:46;;;;;;;9.68;8.65;;;;;;;16.34;69.28;99243.09;4951675;28;20047;-70
2021/05/17 02:55:14;;;;;;;11.02;9.27;;;;;;;16.26;69.86;99239.50;4952006;28;20503;-70
2021/05/17 02:57:50;;;;;;;17.60;9.80;;;;;;;16.22;70.09;99242.41;4945225;28;20047;-70
2021/05/17 03:00:22;;;;;;;12.00;10.80;;;;;;;16.16;70.94;99240.31;4932469;28;20558;-70
2021/05/17 03:03:07;;;;;;;15.45;13.70;;;;;;;16.11;72.02;99247.78;4950501;28;20047;-70
2021/05/17 03:06:02;;;;;;;17.75;15.95;;;;;;;16.04;72.91;99236.16;4951942;28;20066;-69
2021/05/17 03:08:44;;;;;;;18.05;16.20;;;;;;;16.07;72.98;99241.13;4944676;28;20086;-70
2021/05/17 03:11:14;;;;;;;21.63;16.92;;;;;;;16.02;73.27;99239.88;4950131;28;20183;-69
2021/05/17 03:13:42;;;;;;;17.80;16.17;;;;;;;15.95;73.73;99237.78;4933929;28;20566;-70
2021/05/17 03:16:13;;;;;;;19.17;17.17;;;;;;;16.00;73.40;99239.19;4933937;28;20119;-71
2021/05/17 03:18:42;;;;;;;18.80;16.80;;;;;;;16.00;73.39;99239.19;4933583;28;20054;-71
2021/05/17 03:21:09;;;;;;;17.75;16.15;;;;;;;16.03;73.09;99226.59;4950218;28;20071;-71
2021/05/17 03:23:36;;;;;;;21.23;17.35;;;;;;;16.03;72.99;99229.22;4949969;28;20438;-71
2021/05/17 03:26:04;;;;;;;17.70;15.80;;;;;;;16.07;72.60;99228.00;4948670;28;20047;-71
2021/05/17 03:28:31;;;;;;;19.95;16.30;;;;;;;16.01;72.59;99230.34;4949045;28;20087;-71
2021/05/17 03:30:58;;;;;;;21.35;16.10;;;;;;;16.06;72.36;99225.50;4949710;28;20047;-71
2021/05/17 03:33:24;;;;;;;19.15;17.13;;;;;;;16.06;72.21;99220.25;4949963;28;20086;-70
2021/05/17 03:35:51;;;;;;;23.88;17.00;;;;;;;15.98;72.46;99226.19;4950674;28;20074;-70
2021/05/17 03:38:18;;;;;;;18.52;16.50;;;;;;;16.02;72.31;99230.19;4950614;28;20039;-72
2021/05/17 03:40:45;;;;;;;20.30;17.80;;;;;;;15.98;72.27;99236.72;4949900;28;20502;-72
2021/05/17 03:43:12;;;;;;;18.25;15.48;;;;;;;16.03;72.05;99237.09;4950021;28;20041;-72
2021/05/17 03:45:40;;;;;;;16.92;15.35;;;;;;;16.03;71.87;99228.38;4949953;28;20055;-71
2021/05/17 03:48:07;;;;;;;17.42;15.63;;;;;;;15.90;71.94;99226.84;4949557;28;20135;-72
2021/05/17 03:50:34;;;;;;;18.98;14.10;;;;;;;15.99;71.83;99217.34;4949617;28;20062;-72
2021/05/17 03:53:01;;;;;;;15.65;13.60;;;;;;;16.02;71.50;99221.47;4948291;28;20081;-72
2021/05/17 03:55:28;;;;;;;15.85;14.25;;;;;;;15.99;71.42;99222.59;4948558;28;20036;-72
2021/05/17 03:57:56;;;;;;;18.27;13.45;;;;;;;16.06;70.94;99222.88;4949606;28;20047;-72
2021/05/17 04:00:23;;;;;;;14.15;12.57;;;;;;;16.03;71.02;99218.69;4949179;28;20502;-73
2021/05/17 04:02:50;;;;;;;14.80;13.20;;;;;;;15.93;71.07;99207.38;4949028;28;20071;-71
2021/05/17 04:13:25;;;;;;;13.07;11.65;;;;;;;15.97;70.61;99214.81;4954767;28;20118;-72
2021/05/17 04:15:53;;;;;;;18.15;12.93;;;;;;;15.94;70.78;99222.16;4953384;28;20043;-72
2021/05/17 04:18:21;;;;;;;13.93;12.30;;;;;;;15.90;70.96;99223.41;4953934;28;20525;-72
2021/05/17 04:20:50;;;;;;;12.68;11.05;;;;;;;15.98;70.56;99226.19;4956844;28;20047;-67
2021/05/17 04:23:25;;;;;;;13.70;11.15;;;;;;;16.05;70.36;99222.03;4954885;28;20046;-67
2021/05/17 04:25:53;;;;;;;17.40;13.05;;;;;;;16.00;70.59;99229.50;4954806;28;20047;-65
2021/05/17 04:28:20;;;;;;;13.90;12.10;;;;;;;16.06;70.36;99225.50;4955134;28;20039;-67
2021/05/17 04:30:47;;;;;;;15.05;12.07;;;;;;;16.03;70.57;99226.59;4954694;28;20043;-67
2021/05/17 04:33:14;;;;;;;16.65;12.63;;;;;;;16.06;70.15;99223.69;4955826;28;20134;-69
2021/05/17 04:35:41;;;;;;;15.60;11.98;;;;;;;16.11;69.89;99226.75;4955476;28;20067;-69
2021/05/17 04:38:08;;;;;;;14.75;11.82;;;;;;;16.20;69.07;99231.19;4954935;28;20442;-73
2021/05/17 04:40:35;;;;;;;11.55;10.13;;;;;;;16.19;68.33;99229.53;4952135;28;20046;-73
2021/05/17 04:43:03;;;;;;;13.40;8.30;;;;;;;16.22;67.46;99229.25;4954776;28;20102;-73
2021/05/17 04:45:30;;;;;;;8.93;6.88;;;;;;;16.32;67.12;99231.06;4953304;28;20043;-73
2021/05/17 04:47:57;;;;;;;12.45;7.35;;;;;;;16.37;66.58;99226.22;4955902;28;20055;-79
2021/05/17 04:50:24;;;;;;;11.35;7.53;;;;;;;16.45;67.06;99235.06;4952833;28;20438;-75
2021/05/17 04:52:51;;;;;;;14.75;8.38;;;;;;;16.54;66.63;99232.59;4952384;28;20574;-74
2021/05/17 04:55:19;;;;;;;11.80;9.55;;;;;;;16.76;65.50;99240.22;4953321;28;20047;-76
2021/05/17 04:57:46;;;;;;;6.53;4.50;;;;;;;17.10;60.28;99237.09;4951610;28;20043;-72
2021/05/17 05:00:14;;;;;;;10.18;5.55;;;;;;;17.49;62.05;99240.44;4954066;28;20083;-74
2021/05/17 05:02:40;;;;;;;12.88;5.57;;;;;;;17.73;60.35;99237.28;4954711;28;20442;-72
2021/05/17 05:05:08;;;;;;;8.57;7.05;;;;;;;17.96;60.11;99243.00;4954392;28;20082;-71
2021/05/17 05:07:35;;;;;;;16.73;7.00;;;;;;;18.32;58.92;99239.44;4953850;28;20386;-65
2021/05/17 05:10:05;;;;;;;4.97;2.95;;;;;;;18.75;53.65;99237.00;4960759;28;20043;-74
2021/05/17 05:12:33;;;;;;;5.35;3.65;;;;;;;19.00;54.77;99238.00;4956919;28;20561;-73
2021/05/17 05:15:00;;;;;;;6.22;4.03;;;;;;;19.32;53.80;99234.72;4954480;28;20043;-72
2021/05/17 05:17:27;;;;;;;8.70;3.50;;;;;;;19.62;53.04;99230.78;4954919;28;20043;-73
2021/05/17 05:19:54;;;;;;;8.63;3.95;;;;;;;19.92;52.05;99233.84;4953721;28;20130;-72
2021/05/17 05:22:21;;;;;;;4.22;1.70;;;;;;;20.32;48.66;99231.28;4951584;28;20043;-72
2021/05/17 05:24:48;;;;;;;2.30;1.60;;;;;;;20.65;47.28;99241.94;4956406;28;20098;-72
2021/05/17 05:27:28;;;;;;;4.68;2.05;;;;;;;20.95;46.13;99229.00;4935427;28;20047;-77
2021/05/17 05:32:49;;;;;;;6.68;1.55;;;;;;;21.48;44.38;99249.63;4952935;28;20043;-75
2021/05/17 05:35:27;;;;;;;7.70;1.67;;;;;;;21.66;43.49;99260.00;4952512;28;20454;-75
2021/05/17 05:37:54;;;;;;;4.18;1.63;;;;;;;21.91;43.11;99268.69;4921999;28;20383;-75
2021/05/17 05:40:21;;;;;;;3.28;2.13;;;;;;;22.25;42.65;99268.34;4953724;28;20054;-77
2021/05/17 05:42:48;;;;;;;3.13;1.40;;;;;;;22.55;43.38;99273.81;4938504;28;20071;-75
2021/05/17 05:45:23;;;;;;;7.30;1.88;;;;;;;22.97;41.73;99279.47;4953481;28;20545;-75
2021/05/17 05:47:50;;;;;;;3.65;1.63;;;;;;;23.19;40.99;99271.63;4953973;28;20079;-76
2021/05/17 05:50:17;;;;;;;2.40;1.60;;;;;;;23.19;39.18;99271.63;4953889;28;20102;-72
2021/05/17 05:52:44;;;;;;;3.47;1.48;;;;;;;23.41;39.76;99284.03;4954015;28;20134;-73
2021/05/17 05:55:12;;;;;;;4.70;3.83;;;;;;;22.90;43.46;99289.16;4954545;28;20470;-71
2021/05/17 05:57:43;;;;;;;8.13;5.78;;;;;;;23.11;44.99;99288.47;4954269;28;20035;-74
2021/05/17 06:00:14;;;;;;;9.82;7.45;;;;;;;23.17;45.78;99293.09;4954598;28;20051;-75
2021/05/17 06:02:42;;;;;;;86.10;12.13;;;;;;;23.92;44.92;99292.13;4954157;28;20498;-74
2021/05/17 06:05:09;;;;;;;18.25;6.53;;;;;;;23.87;43.10;99299.00;4936667;29;20043;-72
2021/05/17 06:07:37;;;;;;;13.13;4.85;;;;;;;24.03;41.18;99299.63;4953895;28;20070;-72
2021/05/17 06:10:05;;;;;;;49.60;6.80;;;;;;;24.47;41.56;99316.53;4954208;28;20040;-74
2021/05/17 06:12:32;;;;;;;12.30;5.13;;;;;;;24.17;41.09;99321.06;4952117;28;20055;-73
2021/05/17 06:15:02;;;;;;;8.05;7.15;;;;;;;24.41;43.12;99319.97;4953165;28;20067;-73
2021/05/17 06:17:30;;;;;;;12.75;9.45;;;;;;;24.21;44.61;99331.16;4953569;28;20483;-74
2021/05/17 06:19:57;;;;;;;12.65;9.98;;;;;;;24.17;45.90;99337.06;4954433;28;20367;-75
2021/05/17 06:22:26;;;;;;;11.88;10.10;;;;;;;24.98;43.50;99343.91;4957436;28;20126;-74
2021/05/17 06:24:54;;;;;;;14.13;10.57;;;;;;;24.38;44.18;99350.44;4956877;28;20043;-71
2021/05/17 06:27:21;;;;;;;14.82;9.45;;;;;;;23.97;45.76;99358.94;4957009;28;20502;-72
2021/05/17 06:29:50;;;;;;;15.30;8.32;;;;;;;24.92;42.87;99359.81;4959261;28;20387;-73
2021/05/17 06:32:18;;;;;;;11.38;9.18;;;;;;;24.16;44.27;99370.84;4954463;28;20719;-72
2021/05/17 06:34:47;;;;;;;12.50;10.52;;;;;;;24.20;43.95;99376.63;4951312;28;20055;-72
2021/05/17 06:37:15;;;;;;;16.77;10.93;;;;;;;24.68;43.79;99385.00;4951330;28;20047;-72
2021/05/17 06:39:42;;;;;;;13.07;10.63;;;;;;;25.21;42.31;99381.06;4951298;28;20159;-72
2021/05/17 06:42:10;;;;;;;13.80;10.73;;;;;;;24.96;42.39;99383.25;4951663;28;20059;-72
2021/05/17 06:44:37;;;;;;;13.57;11.82;;;;;;;24.65;43.78;99398.69;4953190;28;20094;-72
2021/05/17 06:47:06;;;;;;;16.25;12.48;;;;;;;24.66;42.91;99403.00;4953190;28;20126;-72
2021/05/17 06:49:33;;;;;;;13.75;11.25;;;;;;;25.42;41.65;99408.72;4953197;28;20047;-76
2021/05/17 06:52:00;;;;;;;14.15;10.80;;;;;;;25.22;42.02;99412.03;4953063;28;20039;-75
2021/05/17 06:54:29;;;;;;;11.07;9.98;;;;;;;26.05;40.59;99417.63;4950537;28;20066;-75
2021/05/17 06:59:26;;;;;;;10.93;9.55;;;;;;;26.56;39.41;99420.75;4950297;28;20138;-76
2021/05/17 07:01:53;;;;;;;19.60;9.70;;;;;;;26.76;39.17;99430.69;4950197;28;20451;-76
2021/05/17 07:04:21;;;;;;;9.30;8.23;;;;;;;27.23;37.48;99426.31;4933101;28;20043;-76
2021/05/17 07:06:56;;;;;;;10.45;7.45;;;;;;;27.07;37.55;99432.88;4950214;28;20126;-76
2021/05/17 07:12:11;;;;;;;10.02;7.22;;;;;;;28.10;35.26;99435.94;4954591;28;20039;-77
2021/05/17 07:14:38;;;;;;;8.15;7.28;;;;;;;27.55;35.20;99428.16;4953220;28;20043;-73
2021/05/17 07:17:06;;;;;;;10.85;6.68;;;;;;;27.07;35.54;99443.56;4953997;28;20047;-73
2021/05/17 07:19:34;;;;;;;10.85;6.95;;;;;;;27.30;36.22;99445.84;4953114;28;20044;-73
2021/05/17 07:24:47;;;;;;;11.40;7.20;;;;;;;28.40;34.66;99441.66;4949497;28;20475;-75
2021/05/17 07:27:14;;;;;;;12.20;7.13;;;;;;;28.65;33.62;99449.78;4933184;28;20044;-75
2021/05/17 07:29:40;;;;;;;11.73;8.05;;;;;;;27.46;35.41;99458.84;4951522;28;20071;-75
2021/05/17 07:32:11;;;;;;;9.55;8.00;;;;;;;28.50;34.08;99458.13;4950058;28;20065;-76
2021/05/17 07:34:39;;;;;;;8.73;6.63;;;;;;;28.88;33.50;99460.84;4954010;28;20425;-75
2021/05/17 07:37:07;;;;;;;8.55;7.10;;;;;;;29.08;33.78;99454.56;4954977;28;20040;-75
2021/05/17 07:39:34;;;;;;;12.80;9.27;;;;;;;28.64;33.30;99459.69;4953184;28;20134;-76
2021/05/17 07:42:03;;;;;;;14.13;9.00;;;;;;;28.78;34.31;99460.47;4953072;28;20043;-75
2021/05/17 07:44:30;;;;;;;9.27;8.10;;;;;;;29.13;33.94;99452.84;4954998;28;20082;-75
2021/05/17 07:47:01;;;;;;;9.32;8.43;;;;;;;29.17;33.70;99459.44;4957123;28;20139;-74
2021/05/17 07:49:42;;;;;;;12.15;10.60;;;;;;;28.56;34.79;99457.28;4953794;28;20127;-77
2021/05/17 07:52:10;;;;;;;10.07;8.98;;;;;;;28.89;34.55;99467.84;4954954;28;20122;-77
2021/05/17 07:54:37;;;;;;;11.43;8.63;;;;;;;28.40;34.57;99455.06;4955581;28;20045;-75
2021/05/17 07:57:06;;;;;;;9.80;7.35;;;;;;;29.09;33.59;99466.94;4954020;28;20046;-75
2021/05/17 07:59:34;;;;;;;11.23;8.63;;;;;;;29.03;33.51;99467.78;4953021;28;20055;-75
2021/05/17 08:02:02;;;;;;;10.02;7.35;;;;;;;29.44;33.03;99460.06;4953789;28;20498;-75
2021/05/17 08:04:29;;;;;;;12.73;6.72;;;;;;;30.21;32.03;99458.00;4953490;28;20090;-77
2021/05/17 08:06:56;;;;;;;7.70;6.78;;;;;;;29.88;31.22;99454.78;4953936;28;20094;-76
2021/05/17 08:09:23;;;;;;;7.05;6.32;;;;;;;30.14;31.27;99445.66;4954895;28;20037;-74
2021/05/17 08:11:51;;;;;;;10.52;7.28;;;;;;;30.34;31.11;99453.50;4955323;28;20043;-75
2021/05/17 08:14:18;;;;;;;8.32;7.32;;;;;;;30.09;30.92;99448.16;4955012;28;20091;-75
2021/05/17 08:16:46;;;;;;;8.82;7.22;;;;;;;29.99;31.53;99440.63;4951007;28;20039;-75
2021/05/17 08:19:14;;;;;;;9.98;7.35;;;;;;;29.30;33.20;99457.72;4949665;28;20047;-75
2021/05/17 08:21:41;;;;;;;8.02;6.78;;;;;;;29.12;33.15;99458.44;4947532;28;20043;-75
2021/05/17 08:24:08;;;;;;;7.03;6.32;;;;;;;29.39;31.47;99467.16;4948741;28;20067;-75
2021/05/17 08:26:35;;;;;;;10.77;6.35;;;;;;;29.83;30.92;99454.63;4948500;28;20090;-74
2021/05/17 08:29:03;;;;;;;9.43;7.93;;;;;;;28.62;33.57;99459.09;4948264;28;20047;-75
2021/05/17 08:31:30;;;;;;;10.80;6.78;;;;;;;28.60;33.28;99461.16;4948983;28;20086;-74
2021/05/17 08:33:57;;;;;;;8.98;5.60;;;;;;;28.83;31.77;99457.97;4954333;28;20039;-76
2021/05/17 08:36:25;;;;;;;5.78;5.28;;;;;;;28.98;31.79;99465.78;4948750;28;20039;-74
2021/05/17 08:38:52;;;;;;;11.68;5.82;;;;;;;29.38;32.06;99463.63;4949012;28;20093;-74
2021/05/17 08:41:19;;;;;;;10.57;7.70;;;;;;;28.08;33.84;99468.31;4947547;28;20041;-74
2021/05/17 08:43:46;;;;;;;10.43;7.38;;;;;;;28.96;33.44;99473.19;4949207;28;20063;-74
2021/05/17 08:46:13;;;;;;;13.10;7.95;;;;;;;28.39;33.31;99464.97;4938379;28;20046;-74
2021/05/17 08:48:48;;;;;;;10.13;7.22;;;;;;;27.86;34.30;99477.63;4946690;28;20071;-74
2021/05/17 08:51:19;;;;;;;10.52;6.90;;;;;;;27.33;34.49;99488.28;4947386;28;20498;-75
2021/05/17 08:53:49;;;;;;;9.93;7.00;;;;;;;27.75;34.41;99481.75;4947636;28;20058;-74
2021/05/17 08:56:17;;;;;;;10.05;7.28;;;;;;;27.57;34.10;99485.00;4946860;28;20074;-74
2021/05/17 08:58:44;;;;;;;8.48;7.40;;;;;;;27.13;34.79;99501.59;4947987;28;20184;-74
2021/05/17 09:01:11;;;;;;;10.57;5.60;;;;;;;27.11;35.64;99509.84;4931462;28;20043;-74
2021/05/17 09:04:01;;;;;;;12.15;7.00;;;;;;;27.64;34.92;99501.88;4948500;28;20490;-74
2021/05/17 09:06:44;;;;;;;9.60;6.85;;;;;;;27.71;34.35;99506.47;4948234;28;20086;-75
2021/05/17 09:09:40;;;;;;;9.68;7.60;;;;;;;27.27;34.65;99507.78;4948231;28;20039;-75
2021/05/17 09:12:11;;;;;;;13.70;7.53;;;;;;;26.84;35.40;99506.19;4932658;28;20387;-74
2021/05/17 09:14:39;;;;;;;9.77;5.82;;;;;;;27.03;35.85;99514.50;4948462;28;20487;-74
2021/05/17 09:17:11;;;;;;;11.43;6.60;;;;;;;26.83;35.98;99514.41;4948778;28;20490;-73
2021/05/17 09:19:41;;;;;;;13.10;6.65;;;;;;;26.59;35.86;99519.25;4947199;28;20043;-73
2021/05/17 09:22:21;;;;;;;9.80;5.13;;;;;;;26.47;35.18;99514.66;4947457;28;20043;-74
2021/05/17 09:24:50;;;;;;;6.32;4.82;;;;;;;26.33;34.35;99516.41;4931508;28;20559;-75
2021/05/17 09:27:28;;;;;;;5.38;3.88;;;;;;;26.33;34.56;99519.06;4948623;28;20043;-74
2021/05/17 09:29:59;;;;;;;9.23;4.47;;;;;;;26.10;34.88;99520.16;4948223;28;20434;-75
2021/05/17 09:32:35;;;;;;;7.18;4.30;;;;;;;26.28;34.66;99513.50;4949614;28;20490;-75
2021/05/17 09:35:06;;;;;;;8.80;4.47;;;;;;;26.07;35.48;99519.72;4947823;28;20098;-75
2021/05/17 09:37:53;;;;;;;3.38;3.05;;;;;;;26.22;33.89;99515.09;4948417;28;20435;-75
2021/05/17 09:40:24;;;;;;;11.60;4.10;;;;;;;25.86;34.14;99520.59;4947166;28;20047;-76
2021/05/17 09:43:05;;;;;;;5.75;3.75;;;;;;;26.09;34.32;99526.50;4947351;28;20073;-75
2021/05/17 09:45:44;;;;;;;4.13;2.92;;;;;;;26.10;34.21;99528.19;4948602;28;20047;-74
2021/05/17 09:48:20;;;;;;;5.30;3.08;;;;;;;26.01;33.58;99526.66;4946429;28;20074;-75
2021/05/17 09:51:13;;;;;;;6.28;3.25;;;;;;;25.48;33.61;99525.34;4929733;28;20624;-75
2021/05/17 09:53:47;;;;;;;4.78;2.72;;;;;;;25.79;33.42;99525.06;4948281;28;20127;-75
2021/05/17 09:56:18;;;;;;;8.65;2.15;;;;;;;25.83;32.94;99528.97;4951620;28;20077;-75
2021/05/17 09:58:47;;;;;;;3.17;2.15;;;;;;;25.92;32.19;99527.81;4951043;28;20114;-75
2021/05/17 10:01:16;;;;;;;3.78;1.85;;;;;;;25.95;32.91;99527.44;4950302;28;20074;-75
2021/05/17 10:03:48;;;;;;;4.53;2.42;;;;;;;26.11;33.17;99531.69;4950546;28;20082;-74
2021/05/17 10:06:24;;;;;;;4.97;2.40;;;;;;;26.22;32.54;99538.31;4951980;28;22251;-75
2021/05/17 10:08:52;;;;;;;5.15;2.42;;;;;;;26.18;32.31;99523.69;4934556;28;20046;-73
2021/05/17 10:11:21;;;;;;;3.83;2.20;;;;;;;26.28;31.25;99522.34;4953809;28;20125;-71
2021/05/17 10:13:49;;;;;;;3.85;1.50;;;;;;;26.25;30.44;99519.22;4934387;28;20051;-71
2021/05/17 10:16:17;;;;;;;10.85;1.80;;;;;;;26.02;29.28;99530.16;4949964;28;20047;-71
2021/05/17 10:18:46;;;;;;;1.98;1.05;;;;;;;26.06;28.36;99526.91;4952731;28;20043;-74
2021/05/17 10:21:16;;;;;;;3.55;1.08;;;;;;;26.20;28.33;99527.00;4957495;28;20035;-67
2021/05/17 10:23:44;;;;;;;3.78;2.75;;;;;;;26.19;28.52;99530.69;4951491;28;20043;-68
2021/05/17 10:26:20;;;;;;;2.78;1.23;;;;;;;26.25;28.85;99522.72;4955212;28;20043;-68
2021/05/17 10:28:52;;;;;;;3.17;1.10;;;;;;;26.29;28.30;99528.50;4955478;28;20043;-68
2021/05/17 10:31:21;;;;;;;2.55;1.10;;;;;;;26.17;27.16;99530.06;4951373;28;20087;-69
2021/05/17 10:34:04;;;;;;;2.13;0.80;;;;;;;26.05;27.18;99538.63;4951401;28;20051;-68
2021/05/17 10:36:54;;;;;;;7.22;1.00;;;;;;;25.84;25.65;99536.81;4951184;28;20051;-69
2021/05/17 10:39:28;;;;;;;1.95;1.17;;;;;;;25.99;25.98;99542.03;4950815;28;20414;-68
2021/05/17 10:48:10;;;;;;;2.42;1.23;;;;;;;25.74;25.41;99546.97;4951584;28;20110;-67
2021/05/17 10:50:39;;;;;;;1.52;0.98;;;;;;;25.65;24.05;99552.59;4949522;28;20047;-68
2021/05/17 10:53:06;;;;;;;2.58;0.45;;;;;;;25.62;22.14;99553.81;4953162;28;20502;-67
2021/05/17 10:55:47;;;;;;;4.13;0.70;;;;;;;25.41;22.58;99551.97;4951428;28;20059;-65
2021/05/17 11:00:21;;;;;;;4.65;1.08;;;;;;;25.27;24.10;99540.31;4952792;28;20051;-67
2021/05/17 11:01:24;;;;;;;1.95;0.75;;;;;;;25.42;24.39;99547.47;4950889;28;20039;-67
2021/05/17 11:04:26;;;;;;;2.95;0.70;;;;;;;25.58;24.14;99545.38;4949684;28;20093;-68
2021/05/17 11:07:11;;;;;;;2.60;0.63;;;;;;;25.42;23.03;99542.94;4950293;28;21436;-65
2021/05/17 11:09:50;;;;;;;4.00;0.80;;;;;;;25.53;22.64;99547.78;4953967;28;20109;-66
2021/05/17 11:12:26;;;;;;;3.13;0.70;;;;;;;25.67;22.65;99550.56;4947716;28;20063;-66
2021/05/17 11:15:02;;;;;;;4.35;0.57;;;;;;;25.52;22.38;99546.13;4948252;28;20067;-65
2021/05/17 11:17:29;;;;;;;2.33;0.88;;;;;;;25.64;23.41;99551.78;4948343;28;20046;-71
2021/05/17 11:19:56;;;;;;;1.05;0.60;;;;;;;25.57;22.20;99543.72;4949098;28;20035;-70
2021/05/17 11:22:52;;;;;;;2.80;0.93;;;;;;;25.54;21.82;99540.59;4947322;28;20447;-71
2021/05/17 11:25:45;;;;;;;0.82;0.50;;;;;;;25.60;21.55;99546.00;4948942;28;20039;-68
2021/05/17 11:28:13;;;;;;;0.70;0.70;;;;;;;25.71;20.78;99541.16;4951789;28;20043;-67
2021/05/17 11:30:42;;;;;;;2.60;0.55;;;;;;;25.70;20.54;99540.34;4956363;28;20398;-66
2021/05/17 11:33:17;;;;;;;0.82;0.75;;;;;;;25.76;20.34;99542.28;4956382;28;20043;-66
2021/05/17 11:36:09;;;;;;;1.77;1.00;;;;;;;25.80;20.84;99545.38;4958141;28;20047;-68
2021/05/17 11:38:36;;;;;;;1.85;0.68;;;;;;;25.69;20.03;99553.88;4959696;28;20043;-67
2021/05/17 11:41:19;;;;;;;6.88;1.80;;;;;;;25.53;19.75;99553.13;4966412;28;20078;-66
2021/05/17 11:43:46;;;;;;;3.20;0.63;;;;;;;25.53;20.13;99547.78;4956874;28;20142;-66
2021/05/17 11:46:16;;;;;;;0.57;0.50;;;;;;;25.55;20.61;99548.41;4956602;28;20046;-66
2021/05/17 11:48:45;;;;;;;1.48;0.43;;;;;;;25.60;19.73;99547.84;4953541;28;20423;-67
2021/05/17 11:51:12;;;;;;;2.08;0.63;;;;;;;25.70;20.43;99547.53;4963385;28;20069;-66
2021/05/17 11:53:46;;;;;;;0.85;0.50;;;;;;;25.64;19.82;99545.63;4955350;28;20126;-66
2021/05/17 11:56:13;;;;;;;2.17;0.50;;;;;;;25.74;20.26;99543.47;4955062;28;20051;-66
2021/05/17 11:58:40;;;;;;;3.58;0.47;;;;;;;25.70;19.23;99528.84;4955924;28;20047;-66
2021/05/17 12:01:15;;;;;;;0.30;0.30;;;;;;;25.68;19.62;99534.38;4958179;28;20569;-66
2021/05/17 12:03:42;;;;;;;1.35;0.75;;;;;;;25.69;19.06;99529.88;4963219;28;20113;-66
2021/05/17 12:06:09;;;;;;;2.22;0.75;;;;;;;25.70;19.92;99532.34;4955631;28;20074;-65
2021/05/17 12:08:39;;;;;;;0.85;0.50;;;;;;;25.72;20.33;99526.78;4954815;28;20070;-66